Terminal Aerodrome Forecast
Issued by NWS

Home | Current Version | Previous Version | Text Only | Print | Product List | Glossary On
Versions: 1 2 3 4 5 6 7 8 9 10 11 12 13 14 15 16 17 18 19
000
FTUS46 KSEW 241700
TAFCLM
TAF
KCLM 241720Z 2418/2518 32007KT P6SM OVC015
     FM242300 30010KT P6SM SCT022 OVC040
     FM250600 28009KT P6SM OVC015=

USA.gov is the U.S. government's official web portal to all federal, state and local government web resources and services.